Terminal Aerodrome Forecast
Issued by NWS

Home | Current Version | Previous Version | Graphics & Text | Print | Product List | Glossary On
Versions: 1 2 3 4 5 6 7 8 9 10 11 12 13 14 15 16 17 18
000
FTUS43 KMPX 252342
TAFRNH
TAF
KRNH 252342Z 2600/2624 29010KT P6SM SCT035 SCT250
     FM260600 29003KT P6SM SKC
      TEMPO 2609/2612 4SM BR
     FM261800 13006KT P6SM SCT250=

USA.gov is the U.S. government's official web portal to all federal, state and local government web resources and services.